Decoded Metar for KATY (WATERTOWN in SD, USA) (IATA:ATY) | Meteo·Mobile Aviation Weather
aviador You're here:

KATY Decoded Metar

WATERTOWN in SD, USA
Report Time2019-10-21 00:53:00
UTC Time2019-10-21 01:07:53
Flight Rules vfr VFR
Wind090° at 13 Gusting to 29 kt
W.Decomp.*RWY 12: 10.5 kt HW 7.6 kt LCW
RWY 17: 0.9 kt HW 13 kt LCW
Visibility9999 m
Phenomena:N/A
Clouds:Overcast 110 Hf
Expected CloudBase > 3,600 ft AGL from Temp-Dew spread
Ceiling11,000 ft
Temp13°C (ISA +1)
Dew Point04°C (55% RH)
AAT7.0°C
QNH1002 hPa
Density Alt2,408 ft
Elevation1,745 ft
Report Wrong Elevation
Raw Report
KATY 210053Z AUTO 09013G29KT 10SM OVC110 13/04 A2958 RMK AO2 PK
WND 08029/0051 SLP023 T01280044=

Extra information for KATY:More info

Metar Taf Metar & Taf Last 4 Metars F.Rules Stats Wind Profile Meteogram Temp Stats Airport Information Weather charts Add Link Nearby VenuesMetar ALERT Operation Metar Decoded Social comments

AIRNAV info for KATY